AAL2205 KJFK-KPHX
Flight info
| Callsign | AAL2205 |
|---|---|
| Flight time | N/A |
| Altitude | 34000 |
| Route | COATE Q436 RAAKK FARGN YXU HOCKE SLLAP/N0466F360 KOHLL HILRO RST ONL YANKI LEWOY/N0463F380 VRAIN RSK ZUN EAGUL6 |
| Aircraft | B738/M-SDE2E3FGHIRWXY/LB1 |
Departure
| Time | 2026-04-30 21:00 |
|---|---|
| Airport | John F. Kennedy International Airport (KJFK) |
Arrival
| Time | N/A |
|---|---|
| Airport | Phoenix Sky Harbor International Airport (KPHX) |
| Time | Latitude | Longitude | Altitude | Speed | Heading |
|---|---|---|---|---|---|
| 2026-04-30 20:09 | 40.64901 | -73.79407 | 18 ft | 0 kts | 331° |
| 2026-04-30 20:42 | 40.64888 | -73.79400 | 18 ft | 4 kts | 339° |
| 2026-04-30 20:43 | 40.64862 | -73.79392 | 18 ft | 4 kts | 5° |
| 2026-04-30 20:43 | 40.64839 | -73.79403 | 18 ft | 4 kts | 47° |
| 2026-04-30 20:43 | 40.64832 | -73.79414 | 18 ft | 1 kts | 60° |
| 2026-04-30 20:49 | 40.64845 | -73.79383 | 19 ft | 7 kts | 60° |
| 2026-04-30 20:50 | 40.64902 | -73.79249 | 17 ft | 10 kts | 61° |
| 2026-04-30 20:50 | 40.64940 | -73.79160 | 17 ft | 12 kts | 60° |
| 2026-04-30 20:50 | 40.64985 | -73.79056 | 17 ft | 14 kts | 60° |
| 2026-04-30 20:50 | 40.65034 | -73.78946 | 17 ft | 12 kts | 53° |
| 2026-04-30 20:51 | 40.65095 | -73.78912 | 18 ft | 10 kts | 10° |
| 2026-04-30 20:51 | 40.65159 | -73.78724 | 19 ft | 16 kts | 65° |
| 2026-04-30 20:51 | 40.65218 | -73.78582 | 19 ft | 19 kts | 60° |
| 2026-04-30 20:52 | 40.65267 | -73.78410 | 19 ft | 21 kts | 92° |
| 2026-04-30 20:52 | 40.65210 | -73.78254 | 19 ft | 18 kts | 121° |
| 2026-04-30 20:52 | 40.65116 | -73.78011 | 19 ft | 10 kts | 70° |
| 2026-04-30 20:53 | 40.65163 | -73.77965 | 19 ft | 6 kts | 32° |
| 2026-04-30 20:53 | 40.65172 | -73.77958 | 19 ft | 0 kts | 32° |
| 2026-04-30 20:54 | 40.65191 | -73.77943 | 19 ft | 9 kts | 32° |
| 2026-04-30 20:54 | 40.65270 | -73.77881 | 19 ft | 13 kts | 30° |
| 2026-04-30 20:55 | 40.65296 | -73.77680 | 19 ft | 18 kts | 121° |
| 2026-04-30 20:55 | 40.65222 | -73.77518 | 19 ft | 23 kts | 121° |
| 2026-04-30 20:55 | 40.65142 | -73.77341 | 19 ft | 22 kts | 121° |
| 2026-04-30 20:56 | 40.64989 | -73.77002 | 20 ft | 21 kts | 120° |
| 2026-04-30 20:56 | 40.64916 | -73.76842 | 21 ft | 20 kts | 121° |
| 2026-04-30 20:56 | 40.64943 | -73.76648 | 20 ft | 13 kts | 30° |
| 2026-04-30 20:57 | 40.65018 | -73.76589 | 21 ft | 12 kts | 31° |
| 2026-04-30 20:57 | 40.65090 | -73.76530 | 21 ft | 10 kts | 39° |
| 2026-04-30 20:57 | 40.65095 | -73.76462 | 21 ft | 5 kts | 117° |
| 2026-04-30 20:58 | 40.65092 | -73.76455 | 23 ft | 0 kts | 119° |
| 2026-04-30 20:58 | 40.65082 | -73.76433 | 23 ft | 7 kts | 119° |
| 2026-04-30 20:59 | 40.65004 | -73.76370 | 21 ft | 7 kts | 210° |
| 2026-04-30 20:59 | 40.64943 | -73.76418 | 21 ft | 25 kts | 211° |
| 2026-04-30 21:00 | 40.63861 | -73.77263 | 20 ft | 148 kts | 211° |
| 2026-04-30 21:00 | 40.61772 | -73.78799 | 976 ft | 182 kts | 209° |
| 2026-04-30 21:01 | 40.59388 | -73.80372 | 2216 ft | 200 kts | 208° |
| 2026-04-30 21:01 | 40.58107 | -73.81186 | 2729 ft | 211 kts | 208° |
| 2026-04-30 21:01 | 40.55244 | -73.83000 | 3354 ft | 246 kts | 208° |
| 2026-04-30 21:02 | 40.53638 | -73.84037 | 3742 ft | 263 kts | 208° |
| 2026-04-30 21:02 | 40.51991 | -73.85097 | 4541 ft | 264 kts | 208° |
| 2026-04-30 21:02 | 40.50325 | -73.86091 | 4894 ft | 264 kts | 199° |
| 2026-04-30 21:02 | 40.48470 | -73.86284 | 5001 ft | 275 kts | 172° |
| 2026-04-30 21:03 | 40.46709 | -73.85313 | 5060 ft | 278 kts | 143° |
| 2026-04-30 21:03 | 40.45528 | -73.83356 | 5559 ft | 278 kts | 114° |
| 2026-04-30 21:03 | 40.45141 | -73.80847 | 6098 ft | 286 kts | 86° |
| 2026-04-30 21:03 | 40.45645 | -73.78324 | 6610 ft | 289 kts | 59° |
| 2026-04-30 21:04 | 40.46777 | -73.76199 | 7153 ft | 289 kts | 49° |
| 2026-04-30 21:04 | 40.48060 | -73.74152 | 7627 ft | 292 kts | 47° |
| 2026-04-30 21:04 | 40.50699 | -73.70060 | 8622 ft | 294 kts | 47° |
| 2026-04-30 21:05 | 40.52024 | -73.68016 | 9151 ft | 294 kts | 47° |
| 2026-04-30 21:05 | 40.52925 | -73.66629 | 9504 ft | 296 kts | 47° |
| 2026-04-30 21:05 | 40.54714 | -73.63868 | 10168 ft | 304 kts | 47° |
| 2026-04-30 21:05 | 40.55641 | -73.62422 | 10494 ft | 309 kts | 47° |
| 2026-04-30 21:06 | 40.57021 | -73.60268 | 10996 ft | 315 kts | 47° |
| 2026-04-30 21:06 | 40.58448 | -73.58043 | 11501 ft | 321 kts | 47° |
| 2026-04-30 21:06 | 40.59910 | -73.55768 | 11930 ft | 331 kts | 47° |
| 2026-04-30 21:06 | 40.61419 | -73.53427 | 12333 ft | 341 kts | 47° |
| 2026-04-30 21:07 | 40.62977 | -73.51016 | 12751 ft | 351 kts | 47° |
| 2026-04-30 21:07 | 40.64643 | -73.48616 | 13141 ft | 358 kts | 37° |
| 2026-04-30 21:07 | 40.66773 | -73.46973 | 13537 ft | 356 kts | 14° |
| 2026-04-30 21:07 | 40.69199 | -73.46469 | 13920 ft | 354 kts | 352° |
| 2026-04-30 21:08 | 40.71580 | -73.47158 | 14292 ft | 350 kts | 330° |
| 2026-04-30 21:08 | 40.73577 | -73.48933 | 14679 ft | 346 kts | 309° |
| 2026-04-30 21:08 | 40.74993 | -73.51483 | 15073 ft | 347 kts | 295° |
| 2026-04-30 21:08 | 40.76061 | -73.54358 | 15455 ft | 352 kts | 289° |
| 2026-04-30 21:09 | 40.77026 | -73.57376 | 15710 ft | 364 kts | 289° |
| 2026-04-30 21:09 | 40.78057 | -73.60500 | 15863 ft | 378 kts | 290° |
| 2026-04-30 21:09 | 40.79127 | -73.63698 | 16236 ft | 384 kts | 290° |
| 2026-04-30 21:09 | 40.80209 | -73.66924 | 16874 ft | 383 kts | 289° |
| 2026-04-30 21:10 | 40.81284 | -73.70133 | 17556 ft | 382 kts | 289° |
| 2026-04-30 21:10 | 40.82356 | -73.73351 | 18087 ft | 385 kts | 289° |
| 2026-04-30 21:10 | 40.83433 | -73.76599 | 18531 ft | 388 kts | 289° |
| 2026-04-30 21:10 | 40.84517 | -73.79883 | 18932 ft | 391 kts | 288° |
| 2026-04-30 21:11 | 40.85606 | -73.83185 | 19363 ft | 393 kts | 288° |
| 2026-04-30 21:11 | 40.86699 | -73.86503 | 19807 ft | 395 kts | 288° |
| 2026-04-30 21:11 | 40.87796 | -73.89840 | 20213 ft | 397 kts | 288° |
| 2026-04-30 21:11 | 40.88901 | -73.93203 | 20619 ft | 400 kts | 288° |
| 2026-04-30 21:12 | 40.90011 | -73.96587 | 21012 ft | 402 kts | 288° |
| 2026-04-30 21:12 | 40.91125 | -73.99990 | 21418 ft | 404 kts | 288° |
| 2026-04-30 21:12 | 40.92244 | -74.03407 | 21852 ft | 406 kts | 288° |
| 2026-04-30 21:12 | 40.93368 | -74.06846 | 22264 ft | 408 kts | 288° |
| 2026-04-30 21:13 | 40.94497 | -74.10305 | 22651 ft | 411 kts | 288° |
| 2026-04-30 21:13 | 40.95631 | -74.13786 | 23011 ft | 413 kts | 288° |
| 2026-04-30 21:13 | 40.96772 | -74.17289 | 23354 ft | 415 kts | 288° |
| 2026-04-30 21:13 | 40.97915 | -74.20802 | 23656 ft | 417 kts | 288° |
| 2026-04-30 21:14 | 40.99061 | -74.24330 | 23939 ft | 418 kts | 288° |
| 2026-04-30 21:14 | 41.00211 | -74.27877 | 24231 ft | 420 kts | 288° |
| 2026-04-30 21:14 | 41.01364 | -74.31437 | 24515 ft | 422 kts | 288° |
| 2026-04-30 21:14 | 41.02520 | -74.35011 | 24809 ft | 423 kts | 288° |
| 2026-04-30 21:15 | 41.03678 | -74.38596 | 25139 ft | 424 kts | 288° |
| 2026-04-30 21:15 | 41.04838 | -74.42189 | 25430 ft | 425 kts | 288° |
| 2026-04-30 21:15 | 41.06000 | -74.45795 | 25695 ft | 427 kts | 288° |
| 2026-04-30 21:15 | 41.07152 | -74.49376 | 25946 ft | 429 kts | 288° |
| 2026-04-30 21:16 | 41.08322 | -74.53013 | 26205 ft | 430 kts | 288° |
| 2026-04-30 21:16 | 41.09494 | -74.56667 | 26435 ft | 431 kts | 288° |
| 2026-04-30 21:16 | 41.10669 | -74.60333 | 26710 ft | 432 kts | 288° |
| 2026-04-30 21:16 | 41.11845 | -74.64001 | 27075 ft | 431 kts | 288° |
| 2026-04-30 21:17 | 41.13011 | -74.67645 | 27488 ft | 428 kts | 288° |
| 2026-04-30 21:17 | 41.14261 | -74.71233 | 27865 ft | 431 kts | 292° |
| 2026-04-30 21:17 | 41.15734 | -74.74700 | 28199 ft | 432 kts | 294° |
| 2026-04-30 21:17 | 41.17259 | -74.78135 | 28542 ft | 432 kts | 295° |
| 2026-04-30 21:18 | 41.18791 | -74.81555 | 28958 ft | 430 kts | 295° |
| 2026-04-30 21:18 | 41.20307 | -74.84956 | 29431 ft | 426 kts | 294° |
| 2026-04-30 21:18 | 41.21803 | -74.88344 | 29839 ft | 424 kts | 294° |
| 2026-04-30 21:18 | 41.23284 | -74.91728 | 30100 ft | 424 kts | 294° |
| 2026-04-30 21:19 | 41.24761 | -74.95126 | 30282 ft | 425 kts | 294° |
| 2026-04-30 21:19 | 41.26242 | -74.98546 | 30476 ft | 426 kts | 294° |
| 2026-04-30 21:19 | 41.27718 | -75.01961 | 30717 ft | 426 kts | 294° |
| 2026-04-30 21:19 | 41.29195 | -75.05380 | 30957 ft | 426 kts | 294° |
| 2026-04-30 21:20 | 41.30672 | -75.08801 | 31213 ft | 427 kts | 294° |
| 2026-04-30 21:20 | 41.32151 | -75.12233 | 31440 ft | 427 kts | 294° |
| 2026-04-30 21:20 | 41.33627 | -75.15660 | 31640 ft | 427 kts | 294° |
| 2026-04-30 21:20 | 41.35105 | -75.19095 | 31855 ft | 428 kts | 294° |
| 2026-04-30 21:21 | 41.36582 | -75.22532 | 32071 ft | 428 kts | 294° |
| 2026-04-30 21:21 | 41.38060 | -75.25977 | 32266 ft | 429 kts | 294° |
| 2026-04-30 21:21 | 41.41020 | -75.32884 | 32665 ft | 430 kts | 294° |
| 2026-04-30 21:22 | 41.42498 | -75.36339 | 32895 ft | 429 kts | 294° |
| 2026-04-30 21:22 | 41.46907 | -75.46668 | 33524 ft | 430 kts | 294° |
| 2026-04-30 21:23 | 41.48255 | -75.50212 | 33672 ft | 426 kts | 287° |
| 2026-04-30 21:23 | 41.49338 | -75.53880 | 33858 ft | 426 kts | 285° |
| 2026-04-30 21:23 | 41.51401 | -75.61332 | 33849 ft | 429 kts | 285° |
| 2026-04-30 21:24 | 41.53494 | -75.68771 | 33850 ft | 427 kts | 285° |
| 2026-04-30 21:24 | 41.55603 | -75.76150 | 33852 ft | 424 kts | 286° |
| 2026-04-30 21:25 | 41.58747 | -75.87165 | 33858 ft | 422 kts | 286° |
| 2026-04-30 21:26 | 41.61850 | -75.98176 | 33858 ft | 422 kts | 285° |
| 2026-04-30 21:27 | 41.64945 | -76.09214 | 33861 ft | 424 kts | 285° |
| 2026-04-30 21:27 | 41.67014 | -76.16610 | 33889 ft | 426 kts | 286° |
| 2026-04-30 21:28 | 41.70139 | -76.27773 | 33873 ft | 428 kts | 286° |
| 2026-04-30 21:29 | 41.73299 | -76.38980 | 33876 ft | 429 kts | 286° |
| 2026-04-30 21:30 | 41.78532 | -76.57711 | 33893 ft | 429 kts | 286° |
| 2026-04-30 21:31 | 41.83657 | -76.76324 | 33881 ft | 425 kts | 286° |
| 2026-04-30 21:32 | 41.86709 | -76.87465 | 33926 ft | 424 kts | 286° |
| 2026-04-30 21:32 | 41.88734 | -76.94891 | 33909 ft | 424 kts | 286° |
| 2026-04-30 21:33 | 41.91749 | -77.06051 | 33916 ft | 424 kts | 286° |
| 2026-04-30 21:34 | 41.93753 | -77.13503 | 33921 ft | 425 kts | 286° |
| 2026-04-30 21:34 | 41.96760 | -77.24718 | 33947 ft | 426 kts | 286° |
| 2026-04-30 21:35 | 41.98762 | -77.32214 | 33928 ft | 426 kts | 286° |
| 2026-04-30 21:35 | 42.00762 | -77.39724 | 33959 ft | 427 kts | 286° |
| 2026-04-30 21:36 | 42.02788 | -77.47241 | 33952 ft | 428 kts | 286° |
| 2026-04-30 21:37 | 42.06887 | -77.62268 | 33970 ft | 428 kts | 287° |
| 2026-04-30 21:37 | 42.08923 | -77.69789 | 33969 ft | 427 kts | 287° |
| 2026-04-30 21:38 | 42.10952 | -77.77311 | 33963 ft | 427 kts | 287° |
| 2026-04-30 21:38 | 42.12969 | -77.84816 | 33936 ft | 426 kts | 287° |
| 2026-04-30 21:39 | 42.14977 | -77.92307 | 33935 ft | 425 kts | 287° |
| 2026-04-30 21:39 | 42.16965 | -77.99748 | 33939 ft | 425 kts | 287° |
| 2026-04-30 21:40 | 42.18960 | -78.07236 | 33961 ft | 424 kts | 287° |
| 2026-04-30 21:40 | 42.20948 | -78.14722 | 33946 ft | 424 kts | 287° |
| 2026-04-30 21:41 | 42.22932 | -78.22212 | 33938 ft | 423 kts | 287° |
| 2026-04-30 21:41 | 42.24894 | -78.29686 | 33934 ft | 422 kts | 286° |
| 2026-04-30 21:42 | 42.26768 | -78.37199 | 33938 ft | 422 kts | 285° |
| 2026-04-30 21:42 | 42.28620 | -78.44721 | 33936 ft | 423 kts | 285° |
| 2026-04-30 21:43 | 42.30165 | -78.50987 | 33941 ft | 423 kts | 285° |
| 2026-04-30 21:43 | 42.32344 | -78.59815 | 33954 ft | 424 kts | 285° |
| 2026-04-30 21:44 | 42.34205 | -78.67383 | 33966 ft | 424 kts | 285° |
| 2026-04-30 21:44 | 42.36063 | -78.74955 | 33979 ft | 425 kts | 285° |
| 2026-04-30 21:45 | 42.37915 | -78.82534 | 33975 ft | 424 kts | 285° |
| 2026-04-30 21:45 | 42.39762 | -78.90113 | 33988 ft | 423 kts | 285° |
| 2026-04-30 21:46 | 42.41599 | -78.97618 | 33985 ft | 423 kts | 285° |
| 2026-04-30 21:46 | 42.43451 | -79.05156 | 33995 ft | 422 kts | 285° |
| 2026-04-30 21:47 | 42.45294 | -79.12684 | 33989 ft | 421 kts | 285° |
| 2026-04-30 21:47 | 42.47128 | -79.20209 | 33990 ft | 420 kts | 285° |
| 2026-04-30 21:48 | 42.48953 | -79.27721 | 33990 ft | 420 kts | 285° |
| 2026-04-30 21:48 | 42.50770 | -79.35227 | 33990 ft | 419 kts | 285° |
| 2026-04-30 21:49 | 42.52581 | -79.42734 | 34004 ft | 419 kts | 285° |
| 2026-04-30 21:49 | 42.54387 | -79.50243 | 34001 ft | 419 kts | 285° |
| 2026-04-30 21:50 | 42.56190 | -79.57766 | 33985 ft | 420 kts | 285° |
| 2026-04-30 21:50 | 42.57991 | -79.65304 | 33992 ft | 420 kts | 285° |
| 2026-04-30 21:51 | 42.59789 | -79.72852 | 33992 ft | 420 kts | 285° |
| 2026-04-30 21:51 | 42.61639 | -79.80389 | 33993 ft | 422 kts | 289° |
| 2026-04-30 21:52 | 42.63937 | -79.87684 | 33982 ft | 423 kts | 291° |
| 2026-04-30 21:52 | 42.66339 | -79.94988 | 33981 ft | 423 kts | 291° |
| 2026-04-30 21:53 | 42.68709 | -80.02306 | 33973 ft | 423 kts | 290° |
| 2026-04-30 21:53 | 42.70672 | -80.08451 | 33974 ft | 422 kts | 290° |
| 2026-04-30 21:54 | 42.72998 | -80.15782 | 33976 ft | 422 kts | 290° |
| 2026-04-30 21:54 | 42.75316 | -80.23115 | 33983 ft | 422 kts | 290° |
| 2026-04-30 21:55 | 42.77610 | -80.30393 | 33975 ft | 421 kts | 290° |
| 2026-04-30 21:55 | 42.79927 | -80.37760 | 33979 ft | 420 kts | 290° |
| 2026-04-30 21:56 | 42.82206 | -80.45027 | 33977 ft | 420 kts | 290° |
| 2026-04-30 21:56 | 42.84495 | -80.52344 | 33990 ft | 420 kts | 290° |
| 2026-04-30 21:57 | 42.86779 | -80.59669 | 33980 ft | 420 kts | 290° |
| 2026-04-30 21:57 | 42.89058 | -80.66996 | 33978 ft | 420 kts | 290° |
| 2026-04-30 21:58 | 42.91334 | -80.74334 | 33977 ft | 420 kts | 290° |
| 2026-04-30 21:58 | 42.93602 | -80.81668 | 33984 ft | 420 kts | 290° |
| 2026-04-30 21:59 | 42.95866 | -80.89008 | 33985 ft | 420 kts | 290° |
| 2026-04-30 22:00 | 42.99251 | -81.00022 | 33987 ft | 419 kts | 290° |
| 2026-04-30 22:00 | 43.02620 | -81.11026 | 33990 ft | 418 kts | 290° |
| 2026-04-30 22:01 | 43.04419 | -81.18526 | 33991 ft | 414 kts | 279° |
| 2026-04-30 22:01 | 43.05536 | -81.26238 | 33995 ft | 413 kts | 279° |
| 2026-04-30 22:02 | 43.06661 | -81.33940 | 33991 ft | 413 kts | 279° |
| 2026-04-30 22:02 | 43.07798 | -81.41648 | 33995 ft | 413 kts | 279° |
| 2026-04-30 22:03 | 43.08937 | -81.49356 | 33997 ft | 414 kts | 279° |
| 2026-04-30 22:03 | 43.10072 | -81.57069 | 34018 ft | 414 kts | 279° |
| 2026-04-30 22:04 | 43.11203 | -81.64790 | 34016 ft | 414 kts | 279° |
| 2026-04-30 22:05 | 43.12892 | -81.76395 | 34024 ft | 414 kts | 279° |
| 2026-04-30 22:05 | 43.14003 | -81.84081 | 34059 ft | 414 kts | 280° |
| 2026-04-30 22:06 | 43.15118 | -81.91834 | 34042 ft | 415 kts | 279° |
| 2026-04-30 22:06 | 43.16785 | -82.03494 | 34038 ft | 416 kts | 279° |
| 2026-04-30 22:07 | 43.17892 | -82.11287 | 34034 ft | 417 kts | 279° |
| 2026-04-30 22:07 | 43.18995 | -82.19087 | 34031 ft | 417 kts | 279° |
| 2026-04-30 22:08 | 43.20094 | -82.26903 | 34034 ft | 418 kts | 279° |
| 2026-04-30 22:08 | 43.21189 | -82.34732 | 34036 ft | 418 kts | 279° |
| 2026-04-30 22:09 | 43.22278 | -82.42559 | 34035 ft | 418 kts | 279° |
| 2026-04-30 22:09 | 43.23362 | -82.50395 | 34030 ft | 418 kts | 279° |
| 2026-04-30 22:10 | 43.24439 | -82.58217 | 34022 ft | 417 kts | 279° |
| 2026-04-30 22:10 | 43.25503 | -82.65979 | 34021 ft | 416 kts | 279° |
| 2026-04-30 22:11 | 43.26900 | -82.77703 | 34008 ft | 414 kts | 276° |
| 2026-04-30 22:12 | 43.27599 | -82.85542 | 34012 ft | 413 kts | 276° |
| 2026-04-30 22:12 | 43.28293 | -82.93372 | 34006 ft | 413 kts | 276° |
| 2026-04-30 22:13 | 43.28999 | -83.01187 | 34008 ft | 412 kts | 276° |
| 2026-04-30 22:13 | 43.29710 | -83.08994 | 34012 ft | 412 kts | 276° |
| 2026-04-30 22:14 | 43.30418 | -83.16807 | 34014 ft | 412 kts | 276° |
| 2026-04-30 22:14 | 43.31121 | -83.24623 | 34013 ft | 413 kts | 276° |
| 2026-04-30 22:15 | 43.31819 | -83.32444 | 34013 ft | 413 kts | 276° |
| 2026-04-30 22:15 | 43.32512 | -83.40277 | 34017 ft | 413 kts | 276° |
| 2026-04-30 22:16 | 43.33196 | -83.48065 | 34010 ft | 414 kts | 276° |
| 2026-04-30 22:17 | 43.34559 | -83.63772 | 34012 ft | 414 kts | 276° |
| 2026-04-30 22:17 | 43.35566 | -83.75553 | 34010 ft | 414 kts | 276° |
| 2026-04-30 22:18 | 43.36562 | -83.87341 | 34011 ft | 414 kts | 276° |
| 2026-04-30 22:19 | 43.37545 | -83.99126 | 34010 ft | 414 kts | 276° |
| 2026-04-30 22:20 | 43.38515 | -84.10907 | 34022 ft | 413 kts | 276° |
| 2026-04-30 22:20 | 43.39472 | -84.22681 | 34023 ft | 413 kts | 276° |
| 2026-04-30 22:21 | 43.40103 | -84.30522 | 34027 ft | 413 kts | 276° |
| 2026-04-30 22:21 | 43.40728 | -84.38364 | 34022 ft | 413 kts | 276° |
| 2026-04-30 22:22 | 43.41348 | -84.46210 | 34016 ft | 412 kts | 276° |
| 2026-04-30 22:22 | 43.41963 | -84.54051 | 34015 ft | 412 kts | 276° |
| 2026-04-30 22:23 | 43.42572 | -84.61895 | 34013 ft | 412 kts | 276° |
| 2026-04-30 22:23 | 43.43176 | -84.69751 | 34014 ft | 412 kts | 276° |
| 2026-04-30 22:24 | 43.43774 | -84.77593 | 34013 ft | 412 kts | 276° |
| 2026-04-30 22:24 | 43.44363 | -84.85390 | 34017 ft | 412 kts | 276° |
| 2026-04-30 22:25 | 43.44952 | -84.93243 | 34020 ft | 412 kts | 276° |
| 2026-04-30 22:25 | 43.45549 | -85.01093 | 34028 ft | 412 kts | 276° |
| 2026-04-30 22:26 | 43.46453 | -85.12857 | 34038 ft | 412 kts | 276° |
| 2026-04-30 22:27 | 43.47047 | -85.20695 | 34037 ft | 412 kts | 276° |
| 2026-04-30 22:27 | 43.47927 | -85.32452 | 34042 ft | 412 kts | 276° |
| 2026-04-30 22:28 | 43.48794 | -85.44216 | 34044 ft | 411 kts | 276° |
| 2026-04-30 22:29 | 43.49930 | -85.59892 | 34049 ft | 411 kts | 276° |
| 2026-04-30 22:31 | 43.51862 | -85.87271 | 34034 ft | 411 kts | 275° |
| 2026-04-30 22:32 | 43.53203 | -86.06857 | 34038 ft | 411 kts | 275° |
| 2026-04-30 22:33 | 43.54513 | -86.26469 | 34063 ft | 411 kts | 275° |
| 2026-04-30 22:35 | 43.55788 | -86.46089 | 34072 ft | 411 kts | 275° |
| 2026-04-30 22:36 | 43.57030 | -86.65712 | 34078 ft | 411 kts | 275° |
| 2026-04-30 22:37 | 43.57994 | -86.81337 | 34072 ft | 410 kts | 275° |
| 2026-04-30 22:38 | 43.58939 | -86.96999 | 34072 ft | 409 kts | 275° |
| 2026-04-30 22:39 | 43.59633 | -87.08741 | 34084 ft | 410 kts | 275° |
| 2026-04-30 22:40 | 43.60989 | -87.32285 | 34083 ft | 411 kts | 274° |
| 2026-04-30 22:41 | 43.62013 | -87.50666 | 34079 ft | 413 kts | 274° |
| 2026-04-30 22:43 | 43.63296 | -87.74479 | 34058 ft | 415 kts | 274° |
| 2026-04-30 22:44 | 43.63996 | -87.90375 | 34069 ft | 417 kts | 271° |
| 2026-04-30 22:45 | 43.64254 | -88.14464 | 34079 ft | 419 kts | 271° |
| 2026-04-30 22:47 | 43.64554 | -88.38514 | 34043 ft | 416 kts | 271° |
| 2026-04-30 22:48 | 43.64727 | -88.54444 | 34039 ft | 414 kts | 271° |
| 2026-04-30 22:49 | 43.64942 | -88.78158 | 34048 ft | 412 kts | 271° |
| 2026-04-30 22:51 | 43.65110 | -89.01935 | 34058 ft | 414 kts | 271° |
| 2026-04-30 22:52 | 43.65175 | -89.13887 | 34055 ft | 416 kts | 271° |
| 2026-04-30 22:53 | 43.65243 | -89.29898 | 34050 ft | 418 kts | 271° |
| 2026-04-30 22:53 | 43.65279 | -89.41941 | 34045 ft | 418 kts | 271° |
| 2026-04-30 22:55 | 43.65312 | -89.61989 | 34040 ft | 418 kts | 271° |
| 2026-04-30 22:56 | 43.65313 | -89.78016 | 34034 ft | 417 kts | 271° |
| 2026-04-30 22:57 | 43.65283 | -89.97994 | 34037 ft | 416 kts | 270° |
| 2026-04-30 22:58 | 43.65236 | -90.13929 | 34022 ft | 414 kts | 270° |
| 2026-04-30 22:59 | 43.66127 | -90.37619 | 34018 ft | 412 kts | 276° |